Pasco, WA (99301)

6:09 PM PDT on October 24, 2014 (GMT -0700)
West Pasco / Island Estates | Change Station
CLOSE
Current Station
Personal Weather Station
Location: Pasco, WA
Elevation: 495 ft
Nearby Weather Stations
Active Advisory: Wind Advisory

Elev 495 ft 46.28 °N, 119.20 °W | Updated 7 seconds ago

Light Rain
Light Rain Mist
53.1 °F
Feels Like 53.1 °F
N
4.6
Wind Variable Wind from North
Gusts 4.6 mph

Today
High -- | Low -- °F
--% Chance of Precip.
Yesterday
High -- | Low -- °F
Precip. -- in
7:26 AM 5:54 PM
New Moon, 1% visible
Pressure 30.00 in
Visibility 5.0 miles
Clouds Scattered Clouds 3000 ft
Overcast 7000 ft
Dew Point 48 °F
Humidity 82%
Rainfall 0.03 in
Snow Depth Not available.
UV 0 out of 12
Pollen .90 out of 12
Air Quality Not available.
Flu Activity Sporadic
METAR KPSC 250053Z 31005KT 5SM -RA BR SCT030 OVC070 11/11 A2999 RMK AO2 SLP157 P0003 T01110106

More Conditions Fewer Conditions

Pressure 30.00 in
Visibility 5.0 miles
Clouds Scattered Clouds 3000 ft
Overcast 7000 ft
Dew Point 48 °F
Humidity 82%
Rainfall 0.03 in
Snow Depth Not available.
UV 0 out of 12
Pollen .90 out of 12
Air Quality Not available.
Flu Activity Sporadic
METAR KPSC 250053Z 31005KT 5SM -RA BR SCT030 OVC070 11/11 A2999 RMK AO2 SLP157 P0003 T01110106

More Conditions Fewer Conditions

10-Day Weather Forecast

Almanac

Astronomy

Oct. 24, 2014 Rise Set
Actual Time 7:26 AM PDT 5:54 PM PDT
Civil Twilight 6:55 AM PDT 6:24 PM PDT
Nautical Twilight 6:20 AM PDT 6:59 PM PDT
Astronomical Twilight 5:45 AM PDT 7:34 PM PDT
Moon 8:12 AM PDT (10/24) 6:34 PM PDT (10/24)
Length of Visible Light 11h 29m
Length of Day
10h 27m
Tomorrow will be 3m 4s shorter.
New Moon, 1% of the Moon is Illuminated
Today
New Moon
Oct 30
First Quarter
Nov 6
Full
Nov 14
Last Quarter
Nov 22
New

Today's Extremes

State Highs State Lows

Community

WunderPhotos

Upload Photos

1,764,737 photos uploaded!

WunderBlogs® & News

Nearby

Snow Depth

Station Depth Elevation
Sourdough Gulch 0 in 4000 ft
Trough 0 in 5300 ft
Grouse Camp 0 in 5380 ft
Lost Horse 0 in 5000 ft
Green Lake 0 in 6000 ft

Earthquake Activity

City Distance Mag. Time & Date
No recent earthquake activity has been reported nearby.
Minimum magnitude displayed is 2.5.

Coastal Water Temperatures

Place Temperature
No Stations Reporting

Nearby Weather Stations